createdAt,value
2022-11-28T00:02:38.317Z,4.30
2022-11-28T00:06:45.463Z,4.30
2022-11-28T00:10:47.590Z,4.30
2022-11-28T00:14:49.456Z,4.30
2022-11-28T00:18:52.360Z,4.40
2022-11-28T00:22:54.255Z,4.40
2022-11-28T00:26:56.094Z,4.40
2022-11-28T00:31:00.933Z,4.40
2022-11-28T00:35:02.796Z,4.40
2022-11-28T00:39:05.135Z,4.30
2022-11-28T00:43:07.042Z,4.30
2022-11-28T00:47:08.922Z,4.30
2022-11-28T00:51:22.713Z,4.30
2022-11-28T00:55:24.635Z,4.30
2022-11-28T00:59:26.514Z,4.30
2022-11-28T01:03:28.405Z,4.20
2022-11-28T01:07:30.372Z,4.20
2022-11-28T01:11:32.334Z,4.20
2022-11-28T01:15:34.406Z,4.20
2022-11-28T01:19:36.308Z,4.20
2022-11-28T01:23:38.188Z,4.20
2022-11-28T01:27:39.988Z,4.20
2022-11-28T01:31:42.356Z,4.20
2022-11-28T01:35:56.451Z,4.30
2022-11-28T01:39:58.365Z,4.20
2022-11-28T01:44:21.505Z,4.20
2022-11-28T01:48:29.284Z,4.20
2022-11-28T01:52:31.213Z,4.20
2022-11-28T01:56:40.349Z,4.10
2022-11-28T02:00:42.778Z,4.10
2022-11-28T02:04:45.780Z,4.10
2022-11-28T02:08:53.930Z,4.10
2022-11-28T02:13:21.141Z,4.10
2022-11-28T02:18:08.641Z,4.10
2022-11-28T02:22:29.494Z,4.10
2022-11-28T02:27:01.765Z,4.00
2022-11-28T02:31:44.014Z,4.00
2022-11-28T02:36:27.343Z,4.00
2022-11-28T02:40:56.870Z,4.10
2022-11-28T02:45:05.099Z,4.10
2022-11-28T02:49:10.342Z,4.10
2022-11-28T02:53:19.011Z,4.10
2022-11-28T02:57:20.877Z,4.10
2022-11-28T03:01:36.904Z,4.10
2022-11-28T03:06:20.440Z,4.10
2022-11-28T03:11:03.495Z,4.00
2022-11-28T03:15:13.449Z,4.00
2022-11-28T03:19:31.384Z,4.00
2022-11-28T03:23:48.949Z,4.00
2022-11-28T03:28:03.126Z,4.00
2022-11-28T03:32:11.786Z,3.90
2022-11-28T03:36:25.356Z,3.90
2022-11-28T03:40:35.975Z,3.90
2022-11-28T03:44:44.301Z,3.90
2022-11-28T04:14:42.530Z,3.60
2022-11-28T04:18:57.893Z,3.60
2022-11-28T04:23:06.072Z,3.60
2022-11-28T04:27:10.682Z,3.50
2022-11-28T04:31:12.823Z,3.50
2022-11-28T04:35:28.807Z,3.50
2022-11-28T04:39:31.122Z,3.50
2022-11-28T04:43:36.787Z,3.60
2022-11-28T04:47:38.707Z,3.60
2022-11-28T04:51:59.596Z,3.60
2022-11-28T04:56:12.323Z,3.60
2022-11-28T05:00:18.684Z,3.70
2022-11-28T05:04:20.603Z,3.70
2022-11-28T05:08:22.506Z,3.70
2022-11-28T05:12:37.483Z,3.70
2022-11-28T07:15:17.894Z,4.60
2022-11-28T08:35:50.593Z,5.60
2022-11-28T13:15:53.591Z,7.00
2022-11-28T13:20:27.233Z,7.00
2022-11-28T13:25:04.144Z,6.90
2022-11-28T13:30:33.169Z,6.90
2022-11-28T13:38:34.576Z,6.90
2022-11-28T13:41:02.122Z,6.90
2022-11-28T13:45:35.660Z,6.70
2022-11-28T13:49:37.609Z,6.60
2022-11-28T13:55:13.702Z,6.60
2022-11-28T13:59:37.691Z,6.50
2022-11-28T14:04:24.240Z,6.50
2022-11-28T14:08:38.329Z,6.60
2022-11-28T14:14:47.438Z,6.50
2022-11-28T14:19:47.395Z,6.40
2022-11-28T14:25:05.357Z,6.30
2022-11-28T14:35:06.139Z,6.20
2022-11-28T14:39:17.021Z,6.20
2022-11-28T14:43:34.167Z,6.20
2022-11-28T14:48:21.587Z,6.20
2022-11-28T14:52:42.180Z,6.10
2022-11-28T14:57:27.406Z,6.10
2022-11-28T15:06:25.151Z,6.10
2022-11-28T15:10:42.481Z,6.10
2022-11-28T15:14:59.964Z,6.00
2022-11-28T15:19:23.085Z,6.00
2022-11-28T15:23:42.872Z,6.00
2022-11-28T15:27:48.341Z,6.00
2022-11-28T15:32:06.177Z,6.00
2022-11-28T15:36:32.568Z,5.90
2022-11-28T15:40:38.221Z,5.90
2022-11-28T15:50:32.575Z,6.00
2022-11-28T15:59:43.342Z,6.00
2022-11-28T16:04:17.009Z,6.00
2022-11-28T16:09:36.036Z,6.00
2022-11-28T16:13:39.126Z,6.00
2022-11-28T16:17:44.277Z,5.90
2022-11-28T16:22:20.818Z,5.90
2022-11-28T16:26:30.826Z,6.00
2022-11-28T16:30:38.123Z,5.90
2022-11-28T16:35:43.950Z,5.90
2022-11-28T16:40:04.939Z,5.90
2022-11-28T16:44:14.279Z,5.90
2022-11-28T16:48:27.177Z,5.90
2022-11-28T16:52:32.249Z,5.90
2022-11-28T16:56:39.938Z,6.00
2022-11-28T17:29:50.613Z,5.90
2022-11-28T17:39:22.720Z,6.00
2022-11-28T17:44:08.100Z,6.00
2022-11-28T17:48:15.724Z,6.00
2022-11-28T17:57:42.103Z,6.00
2022-11-28T18:02:30.115Z,6.00
2022-11-28T18:07:21.981Z,6.00
2022-11-28T18:11:45.252Z,6.00
2022-11-28T18:17:51.666Z,6.10
2022-11-28T18:22:15.352Z,6.10
2022-11-28T18:32:35.618Z,6.10
2022-11-28T18:37:07.924Z,6.10
2022-11-28T18:41:37.812Z,6.10
2022-11-28T19:32:42.791Z,6.20
2022-11-28T19:41:58.607Z,6.20
2022-11-28T22:08:10.502Z,6.20
2022-11-28T22:12:49.882Z,6.30
2022-11-28T22:17:36.843Z,6.30
2022-11-28T22:22:31.566Z,6.20
2022-11-28T22:32:28.184Z,6.30
2022-11-28T22:36:34.408Z,6.20
2022-11-28T22:40:42.596Z,6.20
2022-11-28T22:44:44.906Z,6.20
2022-11-28T22:55:07.930Z,6.20
2022-11-28T22:59:33.780Z,6.20
2022-11-28T23:03:52.460Z,6.20
2022-11-28T23:08:22.317Z,6.20
2022-11-28T23:17:43.160Z,6.20
2022-11-28T23:22:02.390Z,6.20
2022-11-28T23:26:09.757Z,6.20
2022-11-28T23:30:24.864Z,6.20
2022-11-28T23:34:35.550Z,6.20
2022-11-28T23:43:20.508Z,6.30
2022-11-28T23:47:51.687Z,6.20
2022-11-28T23:52:07.095Z,6.20
2022-11-28T23:56:36.043Z,6.20
